sensor_id;sensor_type;location;lat;lon;timestamp;temperature;humidity
25214;DHT22;13160;51.834;4.706;2022-10-15T00:00:32;14.30;99.90
25214;DHT22;13160;51.834;4.706;2022-10-15T00:07:35;14.30;99.90
25214;DHT22;13160;51.834;4.706;2022-10-15T00:39:21;14.20;99.90
25214;DHT22;13160;51.834;4.706;2022-10-15T00:43:11;14.10;99.90
25214;DHT22;13160;51.834;4.706;2022-10-15T00:46:56;14.10;99.90
25214;DHT22;13160;51.834;4.706;2022-10-15T00:59:47;14.20;99.90
25214;DHT22;13160;51.834;4.706;2022-10-15T01:04:02;14.20;99.90
25214;DHT22;13160;51.834;4.706;2022-10-15T01:07:55;14.10;99.90
25214;DHT22;13160;51.834;4.706;2022-10-15T01:17:10;14.20;99.90
25214;DHT22;13160;51.834;4.706;2022-10-15T01:20:55;14.30;99.90
25214;DHT22;13160;51.834;4.706;2022-10-15T01:38:55;14.20;99.90
25214;DHT22;13160;51.834;4.706;2022-10-15T01:42:24;14.20;99.90
25214;DHT22;13160;51.834;4.706;2022-10-15T01:46:17;14.20;99.90
25214;DHT22;13160;51.834;4.706;2022-10-15T02:04:20;14.30;99.90
25214;DHT22;13160;51.834;4.706;2022-10-15T02:07:21;14.30;99.90
25214;DHT22;13160;51.834;4.706;2022-10-15T02:14:28;14.30;99.90
25214;DHT22;13160;51.834;4.706;2022-10-15T02:25:12;14.40;99.90
25214;DHT22;13160;51.834;4.706;2022-10-15T02:28:39;14.40;99.90
25214;DHT22;13160;51.834;4.706;2022-10-15T02:31:57;14.40;99.90
25214;DHT22;13160;51.834;4.706;2022-10-15T02:35:23;14.40;99.90
25214;DHT22;13160;51.834;4.706;2022-10-15T02:38:54;14.40;99.90
25214;DHT22;13160;51.834;4.706;2022-10-15T02:41:56;14.50;99.90
25214;DHT22;13160;51.834;4.706;2022-10-15T02:45:50;14.40;99.90
25214;DHT22;13160;51.834;4.706;2022-10-15T02:49:01;14.50;99.90
25214;DHT22;13160;51.834;4.706;2022-10-15T02:52:17;14.40;99.90
25214;DHT22;13160;51.834;4.706;2022-10-15T02:55:42;14.40;99.90
25214;DHT22;13160;51.834;4.706;2022-10-15T02:58:58;14.40;99.90
25214;DHT22;13160;51.834;4.706;2022-10-15T03:02:05;14.30;99.90
25214;DHT22;13160;51.834;4.706;2022-10-15T03:05:24;14.30;99.90
25214;DHT22;13160;51.834;4.706;2022-10-15T03:23:36;14.10;99.90
25214;DHT22;13160;51.834;4.706;2022-10-15T03:27:04;14.10;99.90
25214;DHT22;13160;51.834;4.706;2022-10-15T03:33:49;14.00;99.90
25214;DHT22;13160;51.834;4.706;2022-10-15T03:37:31;14.00;99.90
25214;DHT22;13160;51.834;4.706;2022-10-15T03:40:55;13.90;99.90
25214;DHT22;13160;51.834;4.706;2022-10-15T03:43:54;13.90;99.90
25214;DHT22;13160;51.834;4.706;2022-10-15T03:47:40;13.90;99.90
25214;DHT22;13160;51.834;4.706;2022-10-15T03:51:51;13.90;99.90
25214;DHT22;13160;51.834;4.706;2022-10-15T04:03:15;13.80;99.90
25214;DHT22;13160;51.834;4.706;2022-10-15T04:06:27;13.70;99.90
25214;DHT22;13160;51.834;4.706;2022-10-15T04:13:27;13.70;99.90
25214;DHT22;13160;51.834;4.706;2022-10-15T04:17:05;13.70;99.90
25214;DHT22;13160;51.834;4.706;2022-10-15T04:24:52;13.80;99.90
25214;DHT22;13160;51.834;4.706;2022-10-15T04:29:00;13.70;99.90
25214;DHT22;13160;51.834;4.706;2022-10-15T05:00:43;13.80;99.90
25214;DHT22;13160;51.834;4.706;2022-10-15T05:10:07;13.80;99.90
25214;DHT22;13160;51.834;4.706;2022-10-15T05:13:32;13.90;99.90
25214;DHT22;13160;51.834;4.706;2022-10-15T05:16:51;13.90;99.90
25214;DHT22;13160;51.834;4.706;2022-10-15T05:19:46;13.80;99.90
25214;DHT22;13160;51.834;4.706;2022-10-15T05:22:52;13.90;99.90
25214;DHT22;13160;51.834;4.706;2022-10-15T05:25:33;14.00;99.90
25214;DHT22;13160;51.834;4.706;2022-10-15T05:28:32;14.00;99.90
25214;DHT22;13160;51.834;4.706;2022-10-15T05:32:22;14.00;99.90
25214;DHT22;13160;51.834;4.706;2022-10-15T05:35:29;14.00;99.90
25214;DHT22;13160;51.834;4.706;2022-10-15T05:38:52;14.10;99.90
25214;DHT22;13160;51.834;4.706;2022-10-15T05:44:43;14.00;99.90
25214;DHT22;13160;51.834;4.706;2022-10-15T05:48:04;14.00;99.90
25214;DHT22;13160;51.834;4.706;2022-10-15T05:51:00;14.10;99.90
25214;DHT22;13160;51.834;4.706;2022-10-15T05:54:01;14.10;99.90
25214;DHT22;13160;51.834;4.706;2022-10-15T05:56:37;14.10;99.90
25214;DHT22;13160;51.834;4.706;2022-10-15T05:59:47;14.10;99.90
25214;DHT22;13160;51.834;4.706;2022-10-15T06:02:53;14.10;99.90
25214;DHT22;13160;51.834;4.706;2022-10-15T06:06:21;14.10;99.90
25214;DHT22;13160;51.834;4.706;2022-10-15T06:09:14;14.10;99.90
25214;DHT22;13160;51.834;4.706;2022-10-15T06:19:08;14.10;99.90
25214;DHT22;13160;51.834;4.706;2022-10-15T06:22:41;14.10;99.90
25214;DHT22;13160;51.834;4.706;2022-10-15T06:26:11;14.10;99.90
25214;DHT22;13160;51.834;4.706;2022-10-15T06:30:20;14.10;99.90
25214;DHT22;13160;51.834;4.706;2022-10-15T06:34:28;14.10;99.90
25214;DHT22;13160;51.834;4.706;2022-10-15T06:38:03;14.10;99.90
25214;DHT22;13160;51.834;4.706;2022-10-15T06:41:38;14.00;99.90
25214;DHT22;13160;51.834;4.706;2022-10-15T06:48:17;14.10;99.90
25214;DHT22;13160;51.834;4.706;2022-10-15T06:54:14;14.10;99.90
25214;DHT22;13160;51.834;4.706;2022-10-15T06:58:12;14.20;99.90
25214;DHT22;13160;51.834;4.706;2022-10-15T07:05:22;14.20;99.90
25214;DHT22;13160;51.834;4.706;2022-10-15T07:08:51;14.20;99.90
25214;DHT22;13160;51.834;4.706;2022-10-15T07:29:55;14.40;99.90
25214;DHT22;13160;51.834;4.706;2022-10-15T07:37:44;14.50;99.90
25214;DHT22;13160;51.834;4.706;2022-10-15T07:41:07;14.60;99.90
25214;DHT22;13160;51.834;4.706;2022-10-15T07:48:24;14.60;99.90
25214;DHT22;13160;51.834;4.706;2022-10-15T07:51:09;14.70;99.90
25214;DHT22;13160;51.834;4.706;2022-10-15T07:55:11;14.70;99.90
25214;DHT22;13160;51.834;4.706;2022-10-15T07:58:10;14.80;99.90
25214;DHT22;13160;51.834;4.706;2022-10-15T08:00:45;14.80;99.90
25214;DHT22;13160;51.834;4.706;2022-10-15T08:07:14;14.90;99.90
25214;DHT22;13160;51.834;4.706;2022-10-15T08:10:07;14.80;99.90
25214;DHT22;13160;51.834;4.706;2022-10-15T08:12:50;14.90;99.90
25214;DHT22;13160;51.834;4.706;2022-10-15T08:16:14;15.00;99.90
25214;DHT22;13160;51.834;4.706;2022-10-15T08:19:26;15.00;99.90
25214;DHT22;13160;51.834;4.706;2022-10-15T08:22:39;15.10;99.90
25214;DHT22;13160;51.834;4.706;2022-10-15T08:26:44;15.10;99.90
25214;DHT22;13160;51.834;4.706;2022-10-15T08:29:47;15.30;99.90
25214;DHT22;13160;51.834;4.706;2022-10-15T08:39:55;15.40;99.90
25214;DHT22;13160;51.834;4.706;2022-10-15T08:42:42;15.50;99.90
25214;DHT22;13160;51.834;4.706;2022-10-15T08:45:38;15.50;99.90
25214;DHT22;13160;51.834;4.706;2022-10-15T08:48:57;15.60;99.90
25214;DHT22;13160;51.834;4.706;2022-10-15T08:52:07;15.60;99.90
25214;DHT22;13160;51.834;4.706;2022-10-15T08:54:56;15.50;99.90
25214;DHT22;13160;51.834;4.706;2022-10-15T08:57:52;15.70;99.90
25214;DHT22;13160;51.834;4.706;2022-10-15T09:00:47;15.80;99.90
25214;DHT22;13160;51.834;4.706;2022-10-15T09:03:42;15.70;99.90
25214;DHT22;13160;51.834;4.706;2022-10-15T09:06:18;15.80;99.90
25214;DHT22;13160;51.834;4.706;2022-10-15T09:30:08;15.80;99.90
25214;DHT22;13160;51.834;4.706;2022-10-15T09:34:17;15.90;99.90
25214;DHT22;13160;51.834;4.706;2022-10-15T09:37:16;15.90;99.90
25214;DHT22;13160;51.834;4.706;2022-10-15T09:40:19;15.90;99.90
25214;DHT22;13160;51.834;4.706;2022-10-15T09:51:10;16.00;99.90
25214;DHT22;13160;51.834;4.706;2022-10-15T09:53:53;16.10;99.90
25214;DHT22;13160;51.834;4.706;2022-10-15T09:56:36;16.10;99.90
25214;DHT22;13160;51.834;4.706;2022-10-15T09:59:14;16.10;99.90
25214;DHT22;13160;51.834;4.706;2022-10-15T10:01:57;16.10;99.90
25214;DHT22;13160;51.834;4.706;2022-10-15T10:04:28;16.10;99.90
25214;DHT22;13160;51.834;4.706;2022-10-15T10:07:03;16.10;99.90
25214;DHT22;13160;51.834;4.706;2022-10-15T10:09:35;16.10;99.90
25214;DHT22;13160;51.834;4.706;2022-10-15T10:12:19;16.10;99.90
25214;DHT22;13160;51.834;4.706;2022-10-15T10:14:53;16.10;99.90
25214;DHT22;13160;51.834;4.706;2022-10-15T10:17:26;16.20;99.90
25214;DHT22;13160;51.834;4.706;2022-10-15T10:20:14;16.10;99.90
25214;DHT22;13160;51.834;4.706;2022-10-15T10:22:48;16.20;99.90
25214;DHT22;13160;51.834;4.706;2022-10-15T10:25:30;16.20;99.90
25214;DHT22;13160;51.834;4.706;2022-10-15T10:28:13;16.20;99.90
25214;DHT22;13160;51.834;4.706;2022-10-15T10:30:51;16.20;99.90
25214;DHT22;13160;51.834;4.706;2022-10-15T10:33:27;16.20;99.90
25214;DHT22;13160;51.834;4.706;2022-10-15T10:35:58;16.20;99.90
25214;DHT22;13160;51.834;4.706;2022-10-15T10:38:31;16.30;99.90
25214;DHT22;13160;51.834;4.706;2022-10-15T10:41:06;16.30;99.90
25214;DHT22;13160;51.834;4.706;2022-10-15T10:43:37;16.20;99.90
25214;DHT22;13160;51.834;4.706;2022-10-15T10:46:17;16.30;99.90
25214;DHT22;13160;51.834;4.706;2022-10-15T10:48:49;16.30;99.90
25214;DHT22;13160;51.834;4.706;2022-10-15T10:51:23;16.30;99.90
25214;DHT22;13160;51.834;4.706;2022-10-15T10:53:56;16.30;99.90
25214;DHT22;13160;51.834;4.706;2022-10-15T10:56:29;16.30;99.90
25214;DHT22;13160;51.834;4.706;2022-10-15T10:59:13;16.30;99.90
25214;DHT22;13160;51.834;4.706;2022-10-15T11:01:44;16.30;99.90
25214;DHT22;13160;51.834;4.706;2022-10-15T11:04:13;16.30;99.90
25214;DHT22;13160;51.834;4.706;2022-10-15T11:07:02;16.40;99.90
25214;DHT22;13160;51.834;4.706;2022-10-15T11:09:44;16.40;99.90
25214;DHT22;13160;51.834;4.706;2022-10-15T11:12:33;16.40;99.90
25214;DHT22;13160;51.834;4.706;2022-10-15T11:15:29;16.40;99.90
25214;DHT22;13160;51.834;4.706;2022-10-15T11:21:13;16.50;99.90
25214;DHT22;13160;51.834;4.706;2022-10-15T11:24:06;16.50;99.90
25214;DHT22;13160;51.834;4.706;2022-10-15T11:30:11;16.60;99.90
25214;DHT22;13160;51.834;4.706;2022-10-15T11:32:53;16.60;99.90
25214;DHT22;13160;51.834;4.706;2022-10-15T11:35:42;16.60;99.90
25214;DHT22;13160;51.834;4.706;2022-10-15T11:38:26;16.70;99.90
25214;DHT22;13160;51.834;4.706;2022-10-15T11:41:21;16.70;99.90
25214;DHT22;13160;51.834;4.706;2022-10-15T11:44:05;16.70;99.90
25214;DHT22;13160;51.834;4.706;2022-10-15T11:46:48;16.70;99.90
25214;DHT22;13160;51.834;4.706;2022-10-15T11:49:33;16.70;99.90
25214;DHT22;13160;51.834;4.706;2022-10-15T11:52:18;16.80;99.90
25214;DHT22;13160;51.834;4.706;2022-10-15T11:55:00;16.80;99.90
25214;DHT22;13160;51.834;4.706;2022-10-15T11:57:32;16.90;99.90
25214;DHT22;13160;51.834;4.706;2022-10-15T12:00:05;16.90;99.90
25214;DHT22;13160;51.834;4.706;2022-10-15T12:02:41;17.00;99.90
25214;DHT22;13160;51.834;4.706;2022-10-15T12:05:13;17.00;99.90
25214;DHT22;13160;51.834;4.706;2022-10-15T12:07:47;17.10;99.90
25214;DHT22;13160;51.834;4.706;2022-10-15T12:10:28;17.10;99.90
25214;DHT22;13160;51.834;4.706;2022-10-15T12:13:07;17.20;99.90
25214;DHT22;13160;51.834;4.706;2022-10-15T12:15:44;17.20;99.90
25214;DHT22;13160;51.834;4.706;2022-10-15T12:18:24;17.20;99.90
25214;DHT22;13160;51.834;4.706;2022-10-15T12:20:55;17.30;99.90
25214;DHT22;13160;51.834;4.706;2022-10-15T12:23:39;17.30;99.90
25214;DHT22;13160;51.834;4.706;2022-10-15T12:26:28;17.30;99.90
25214;DHT22;13160;51.834;4.706;2022-10-15T12:29:00;17.30;99.90
25214;DHT22;13160;51.834;4.706;2022-10-15T12:31:45;17.30;99.90
25214;DHT22;13160;51.834;4.706;2022-10-15T12:34:38;17.40;99.90
25214;DHT22;13160;51.834;4.706;2022-10-15T12:37:18;17.40;99.90
25214;DHT22;13160;51.834;4.706;2022-10-15T12:39:54;17.40;99.90
25214;DHT22;13160;51.834;4.706;2022-10-15T12:42:28;17.40;99.90
25214;DHT22;13160;51.834;4.706;2022-10-15T12:45:16;17.30;99.90
25214;DHT22;13160;51.834;4.706;2022-10-15T12:47:52;17.40;99.90
25214;DHT22;13160;51.834;4.706;2022-10-15T12:50:27;17.50;99.90
25214;DHT22;13160;51.834;4.706;2022-10-15T12:52:59;17.40;99.90
25214;DHT22;13160;51.834;4.706;2022-10-15T12:55:30;17.40;99.90
25214;DHT22;13160;51.834;4.706;2022-10-15T13:01:04;17.40;99.90
25214;DHT22;13160;51.834;4.706;2022-10-15T13:03:37;17.50;99.90
25214;DHT22;13160;51.834;4.706;2022-10-15T13:06:23;17.50;99.90
25214;DHT22;13160;51.834;4.706;2022-10-15T13:09:20;17.50;99.90
25214;DHT22;13160;51.834;4.706;2022-10-15T13:11:59;17.50;99.90
25214;DHT22;13160;51.834;4.706;2022-10-15T13:14:38;17.50;99.90
25214;DHT22;13160;51.834;4.706;2022-10-15T13:17:16;17.50;99.90
25214;DHT22;13160;51.834;4.706;2022-10-15T13:19:53;17.60;99.90
25214;DHT22;13160;51.834;4.706;2022-10-15T13:22:26;17.60;99.90
25214;DHT22;13160;51.834;4.706;2022-10-15T13:24:56;17.60;99.90
25214;DHT22;13160;51.834;4.706;2022-10-15T13:27:26;17.60;99.90
25214;DHT22;13160;51.834;4.706;2022-10-15T13:29:59;17.60;99.90
25214;DHT22;13160;51.834;4.706;2022-10-15T13:32:30;17.60;99.90
25214;DHT22;13160;51.834;4.706;2022-10-15T13:35:08;17.70;99.90
25214;DHT22;13160;51.834;4.706;2022-10-15T13:38:16;17.70;99.90
25214;DHT22;13160;51.834;4.706;2022-10-15T13:41:04;17.70;99.90
25214;DHT22;13160;51.834;4.706;2022-10-15T13:43:33;17.60;99.90
25214;DHT22;13160;51.834;4.706;2022-10-15T13:46:15;17.60;99.90
25214;DHT22;13160;51.834;4.706;2022-10-15T13:49:22;17.60;99.90
25214;DHT22;13160;51.834;4.706;2022-10-15T13:52:00;17.50;99.90
25214;DHT22;13160;51.834;4.706;2022-10-15T13:54:36;17.50;99.90
25214;DHT22;13160;51.834;4.706;2022-10-15T13:57:18;17.40;99.90
25214;DHT22;13160;51.834;4.706;2022-10-15T13:59:51;17.40;99.90
25214;DHT22;13160;51.834;4.706;2022-10-15T14:02:24;17.40;99.90
25214;DHT22;13160;51.834;4.706;2022-10-15T14:05:14;17.40;99.90
25214;DHT22;13160;51.834;4.706;2022-10-15T14:07:53;17.40;99.90
25214;DHT22;13160;51.834;4.706;2022-10-15T14:10:27;17.40;99.90
25214;DHT22;13160;51.834;4.706;2022-10-15T14:13:02;17.40;99.90
25214;DHT22;13160;51.834;4.706;2022-10-15T14:15:45;17.40;99.90
25214;DHT22;13160;51.834;4.706;2022-10-15T14:18:29;17.40;99.90
25214;DHT22;13160;51.834;4.706;2022-10-15T14:21:08;17.40;99.90
25214;DHT22;13160;51.834;4.706;2022-10-15T14:23:51;17.30;99.90
25214;DHT22;13160;51.834;4.706;2022-10-15T14:26:24;17.30;99.90
25214;DHT22;13160;51.834;4.706;2022-10-15T14:28:52;17.30;99.90
25214;DHT22;13160;51.834;4.706;2022-10-15T14:31:35;17.30;99.90
25214;DHT22;13160;51.834;4.706;2022-10-15T14:34:25;17.30;99.90
25214;DHT22;13160;51.834;4.706;2022-10-15T14:36:55;17.30;99.90
25214;DHT22;13160;51.834;4.706;2022-10-15T14:39:30;17.20;99.90
25214;DHT22;13160;51.834;4.706;2022-10-15T14:42:04;17.30;99.90
25214;DHT22;13160;51.834;4.706;2022-10-15T14:44:41;17.30;99.90
25214;DHT22;13160;51.834;4.706;2022-10-15T14:47:29;17.20;99.90
25214;DHT22;13160;51.834;4.706;2022-10-15T14:50:01;17.20;99.90
25214;DHT22;13160;51.834;4.706;2022-10-15T14:52:45;17.20;99.90
25214;DHT22;13160;51.834;4.706;2022-10-15T14:55:28;17.20;99.90
25214;DHT22;13160;51.834;4.706;2022-10-15T14:58:10;17.30;99.90
25214;DHT22;13160;51.834;4.706;2022-10-15T15:00:46;17.20;99.90
25214;DHT22;13160;51.834;4.706;2022-10-15T15:03:26;17.20;99.90
25214;DHT22;13160;51.834;4.706;2022-10-15T15:05:56;17.20;99.90
25214;DHT22;13160;51.834;4.706;2022-10-15T15:08:25;17.20;99.90
25214;DHT22;13160;51.834;4.706;2022-10-15T15:10:56;17.20;99.90
25214;DHT22;13160;51.834;4.706;2022-10-15T15:13:37;17.20;99.90
25214;DHT22;13160;51.834;4.706;2022-10-15T15:16:31;17.20;99.90
25214;DHT22;13160;51.834;4.706;2022-10-15T15:19:00;17.10;99.90
25214;DHT22;13160;51.834;4.706;2022-10-15T15:21:29;17.10;99.90
25214;DHT22;13160;51.834;4.706;2022-10-15T15:23:59;17.20;99.90
25214;DHT22;13160;51.834;4.706;2022-10-15T15:26:28;17.10;99.90
25214;DHT22;13160;51.834;4.706;2022-10-15T15:28:59;17.10;99.90
25214;DHT22;13160;51.834;4.706;2022-10-15T15:31:28;17.10;99.90
25214;DHT22;13160;51.834;4.706;2022-10-15T15:33:59;17.10;99.90
25214;DHT22;13160;51.834;4.706;2022-10-15T15:36:31;17.10;99.90
25214;DHT22;13160;51.834;4.706;2022-10-15T15:39:00;17.10;99.90
25214;DHT22;13160;51.834;4.706;2022-10-15T15:41:29;17.00;99.90
25214;DHT22;13160;51.834;4.706;2022-10-15T15:44:01;17.00;99.90
25214;DHT22;13160;51.834;4.706;2022-10-15T15:46:33;16.90;99.90
25214;DHT22;13160;51.834;4.706;2022-10-15T15:49:02;17.00;99.90
25214;DHT22;13160;51.834;4.706;2022-10-15T15:51:31;16.90;99.90
25214;DHT22;13160;51.834;4.706;2022-10-15T15:54:01;16.90;99.90
25214;DHT22;13160;51.834;4.706;2022-10-15T15:56:32;16.90;99.90
25214;DHT22;13160;51.834;4.706;2022-10-15T15:59:02;16.90;99.90
25214;DHT22;13160;51.834;4.706;2022-10-15T16:01:33;16.90;99.90
25214;DHT22;13160;51.834;4.706;2022-10-15T16:04:02;16.80;99.90
25214;DHT22;13160;51.834;4.706;2022-10-15T16:06:31;16.80;99.90
25214;DHT22;13160;51.834;4.706;2022-10-15T16:09:00;16.80;99.90
25214;DHT22;13160;51.834;4.706;2022-10-15T16:11:34;16.80;99.90
25214;DHT22;13160;51.834;4.706;2022-10-15T16:14:06;16.70;99.90
25214;DHT22;13160;51.834;4.706;2022-10-15T16:16:35;16.70;99.90
25214;DHT22;13160;51.834;4.706;2022-10-15T16:19:07;16.70;99.90
25214;DHT22;13160;51.834;4.706;2022-10-15T16:22:17;16.60;99.90
25214;DHT22;13160;51.834;4.706;2022-10-15T16:24:46;16.50;99.90
25214;DHT22;13160;51.834;4.706;2022-10-15T16:27:17;16.50;99.90
25214;DHT22;13160;51.834;4.706;2022-10-15T16:29:47;16.50;99.90
25214;DHT22;13160;51.834;4.706;2022-10-15T16:32:16;16.40;99.90
25214;DHT22;13160;51.834;4.706;2022-10-15T16:34:45;16.40;99.90
25214;DHT22;13160;51.834;4.706;2022-10-15T16:37:21;16.40;99.90
25214;DHT22;13160;51.834;4.706;2022-10-15T16:39:51;16.30;99.90
25214;DHT22;13160;51.834;4.706;2022-10-15T16:42:22;16.30;99.90
25214;DHT22;13160;51.834;4.706;2022-10-15T16:44:55;16.30;99.90
25214;DHT22;13160;51.834;4.706;2022-10-15T16:47:24;16.20;99.90
25214;DHT22;13160;51.834;4.706;2022-10-15T16:49:54;16.20;99.90
25214;DHT22;13160;51.834;4.706;2022-10-15T16:52:25;16.20;99.90
25214;DHT22;13160;51.834;4.706;2022-10-15T16:54:55;16.10;99.90
25214;DHT22;13160;51.834;4.706;2022-10-15T16:57:42;16.10;99.90
25214;DHT22;13160;51.834;4.706;2022-10-15T17:00:23;16.20;99.90
25214;DHT22;13160;51.834;4.706;2022-10-15T17:02:54;16.00;99.90
25214;DHT22;13160;51.834;4.706;2022-10-15T17:05:30;15.90;99.90
25214;DHT22;13160;51.834;4.706;2022-10-15T17:07:59;15.90;99.90
25214;DHT22;13160;51.834;4.706;2022-10-15T17:10:28;15.90;99.90
25214;DHT22;13160;51.834;4.706;2022-10-15T17:12:59;15.80;99.90
25214;DHT22;13160;51.834;4.706;2022-10-15T17:15:30;15.90;99.90
25214;DHT22;13160;51.834;4.706;2022-10-15T17:17:59;15.80;99.90
25214;DHT22;13160;51.834;4.706;2022-10-15T17:20:29;15.80;99.90
25214;DHT22;13160;51.834;4.706;2022-10-15T17:23:00;15.70;99.90
25214;DHT22;13160;51.834;4.706;2022-10-15T17:25:29;15.70;99.90
25214;DHT22;13160;51.834;4.706;2022-10-15T17:27:57;15.70;99.90
25214;DHT22;13160;51.834;4.706;2022-10-15T17:30:27;15.70;99.90
25214;DHT22;13160;51.834;4.706;2022-10-15T17:33:06;15.60;99.90
25214;DHT22;13160;51.834;4.706;2022-10-15T17:35:36;15.60;99.90
25214;DHT22;13160;51.834;4.706;2022-10-15T17:38:06;15.50;99.90
25214;DHT22;13160;51.834;4.706;2022-10-15T17:40:41;15.50;99.90
25214;DHT22;13160;51.834;4.706;2022-10-15T17:43:10;15.40;99.90
25214;DHT22;13160;51.834;4.706;2022-10-15T17:45:44;15.40;99.90
25214;DHT22;13160;51.834;4.706;2022-10-15T17:48:13;15.40;99.90
25214;DHT22;13160;51.834;4.706;2022-10-15T17:50:43;15.30;99.90
25214;DHT22;13160;51.834;4.706;2022-10-15T17:53:12;15.30;99.90
25214;DHT22;13160;51.834;4.706;2022-10-15T17:55:41;15.30;99.90
25214;DHT22;13160;51.834;4.706;2022-10-15T17:58:10;15.20;99.90
25214;DHT22;13160;51.834;4.706;2022-10-15T18:00:39;15.20;99.90
25214;DHT22;13160;51.834;4.706;2022-10-15T18:03:11;15.20;99.90
25214;DHT22;13160;51.834;4.706;2022-10-15T18:05:41;15.20;99.90
25214;DHT22;13160;51.834;4.706;2022-10-15T18:08:10;15.20;99.90
25214;DHT22;13160;51.834;4.706;2022-10-15T18:10:39;15.30;99.90
25214;DHT22;13160;51.834;4.706;2022-10-15T18:13:14;15.20;99.90
25214;DHT22;13160;51.834;4.706;2022-10-15T18:15:45;15.20;99.90
25214;DHT22;13160;51.834;4.706;2022-10-15T18:18:16;15.20;99.90
25214;DHT22;13160;51.834;4.706;2022-10-15T18:20:50;15.30;99.90
25214;DHT22;13160;51.834;4.706;2022-10-15T18:23:21;15.30;99.90
25214;DHT22;13160;51.834;4.706;2022-10-15T18:25:59;15.30;99.90
25214;DHT22;13160;51.834;4.706;2022-10-15T18:28:32;15.30;99.90
25214;DHT22;13160;51.834;4.706;2022-10-15T18:31:03;15.30;99.90
25214;DHT22;13160;51.834;4.706;2022-10-15T18:33:36;15.40;99.90
25214;DHT22;13160;51.834;4.706;2022-10-15T18:36:06;15.40;99.90
25214;DHT22;13160;51.834;4.706;2022-10-15T18:38:39;15.40;99.90
25214;DHT22;13160;51.834;4.706;2022-10-15T18:41:13;15.40;99.90
25214;DHT22;13160;51.834;4.706;2022-10-15T18:43:47;15.50;99.90
25214;DHT22;13160;51.834;4.706;2022-10-15T18:46:18;15.50;99.90
25214;DHT22;13160;51.834;4.706;2022-10-15T18:48:49;15.50;99.90
25214;DHT22;13160;51.834;4.706;2022-10-15T18:51:20;15.50;99.90
25214;DHT22;13160;51.834;4.706;2022-10-15T18:53:51;15.50;99.90
25214;DHT22;13160;51.834;4.706;2022-10-15T18:56:21;15.50;99.90
25214;DHT22;13160;51.834;4.706;2022-10-15T18:58:50;15.50;99.90
25214;DHT22;13160;51.834;4.706;2022-10-15T19:01:25;15.50;99.90
25214;DHT22;13160;51.834;4.706;2022-10-15T19:04:01;15.60;99.90
25214;DHT22;13160;51.834;4.706;2022-10-15T19:06:34;15.60;99.90
25214;DHT22;13160;51.834;4.706;2022-10-15T19:09:06;15.60;99.90
25214;DHT22;13160;51.834;4.706;2022-10-15T19:11:38;15.60;99.90
25214;DHT22;13160;51.834;4.706;2022-10-15T19:14:10;15.60;99.90
25214;DHT22;13160;51.834;4.706;2022-10-15T19:16:41;15.70;99.90
25214;DHT22;13160;51.834;4.706;2022-10-15T19:19:15;15.60;99.90
25214;DHT22;13160;51.834;4.706;2022-10-15T19:21:48;15.70;99.90
25214;DHT22;13160;51.834;4.706;2022-10-15T19:24:21;15.60;99.90
25214;DHT22;13160;51.834;4.706;2022-10-15T19:26:52;15.60;99.90
25214;DHT22;13160;51.834;4.706;2022-10-15T19:29:23;15.70;99.90
25214;DHT22;13160;51.834;4.706;2022-10-15T19:31:52;15.70;99.90
25214;DHT22;13160;51.834;4.706;2022-10-15T19:34:24;15.60;99.90
25214;DHT22;13160;51.834;4.706;2022-10-15T19:36:56;15.60;99.90
25214;DHT22;13160;51.834;4.706;2022-10-15T19:39:25;15.60;99.90
25214;DHT22;13160;51.834;4.706;2022-10-15T19:41:54;15.60;99.90
25214;DHT22;13160;51.834;4.706;2022-10-15T19:44:23;15.60;99.90
25214;DHT22;13160;51.834;4.706;2022-10-15T19:46:56;15.60;99.90
25214;DHT22;13160;51.834;4.706;2022-10-15T19:49:26;15.60;99.90
25214;DHT22;13160;51.834;4.706;2022-10-15T19:51:58;15.60;99.90
25214;DHT22;13160;51.834;4.706;2022-10-15T19:54:28;15.60;99.90
25214;DHT22;13160;51.834;4.706;2022-10-15T19:56:57;15.50;99.90
25214;DHT22;13160;51.834;4.706;2022-10-15T19:59:26;15.50;99.90
25214;DHT22;13160;51.834;4.706;2022-10-15T20:01:59;15.50;99.90
25214;DHT22;13160;51.834;4.706;2022-10-15T20:04:29;15.50;99.90
25214;DHT22;13160;51.834;4.706;2022-10-15T20:06:59;15.50;99.90
25214;DHT22;13160;51.834;4.706;2022-10-15T20:09:28;15.50;99.90
25214;DHT22;13160;51.834;4.706;2022-10-15T20:11:58;15.50;99.90
25214;DHT22;13160;51.834;4.706;2022-10-15T20:14:27;15.50;99.90
25214;DHT22;13160;51.834;4.706;2022-10-15T20:16:56;15.50;99.90
25214;DHT22;13160;51.834;4.706;2022-10-15T20:19:25;15.50;99.90
25214;DHT22;13160;51.834;4.706;2022-10-15T20:21:56;15.50;99.90
25214;DHT22;13160;51.834;4.706;2022-10-15T20:24:25;15.40;99.90
25214;DHT22;13160;51.834;4.706;2022-10-15T20:26:55;15.50;99.90
25214;DHT22;13160;51.834;4.706;2022-10-15T20:29:47;15.40;99.90
25214;DHT22;13160;51.834;4.706;2022-10-15T20:32:19;15.50;99.90
25214;DHT22;13160;51.834;4.706;2022-10-15T20:35:01;15.50;99.90
25214;DHT22;13160;51.834;4.706;2022-10-15T20:37:46;15.40;99.90
25214;DHT22;13160;51.834;4.706;2022-10-15T20:40:21;15.50;99.90
25214;DHT22;13160;51.834;4.706;2022-10-15T20:42:50;15.50;99.90
25214;DHT22;13160;51.834;4.706;2022-10-15T20:45:19;15.50;99.90
25214;DHT22;13160;51.834;4.706;2022-10-15T20:47:53;15.40;99.90
25214;DHT22;13160;51.834;4.706;2022-10-15T20:50:29;15.50;99.90
25214;DHT22;13160;51.834;4.706;2022-10-15T20:57:25;15.50;99.90
25214;DHT22;13160;51.834;4.706;2022-10-15T20:59:56;15.40;99.90
25214;DHT22;13160;51.834;4.706;2022-10-15T21:02:51;15.50;99.90
25214;DHT22;13160;51.834;4.706;2022-10-15T21:05:28;15.50;99.90
25214;DHT22;13160;51.834;4.706;2022-10-15T21:08:20;15.50;99.90
25214;DHT22;13160;51.834;4.706;2022-10-15T21:11:14;15.50;99.90
25214;DHT22;13160;51.834;4.706;2022-10-15T21:13:50;15.50;99.90
25214;DHT22;13160;51.834;4.706;2022-10-15T21:16:20;15.50;99.90
25214;DHT22;13160;51.834;4.706;2022-10-15T21:19:09;15.50;99.90
25214;DHT22;13160;51.834;4.706;2022-10-15T21:22:05;15.50;99.90
25214;DHT22;13160;51.834;4.706;2022-10-15T21:24:47;15.50;99.90
25214;DHT22;13160;51.834;4.706;2022-10-15T21:28:02;15.50;99.90
25214;DHT22;13160;51.834;4.706;2022-10-15T21:30:50;15.60;99.90
25214;DHT22;13160;51.834;4.706;2022-10-15T21:33:38;15.50;99.90
25214;DHT22;13160;51.834;4.706;2022-10-15T21:36:27;15.60;99.90
25214;DHT22;13160;51.834;4.706;2022-10-15T21:39:15;15.50;99.90
25214;DHT22;13160;51.834;4.706;2022-10-15T21:41:47;15.50;99.90
25214;DHT22;13160;51.834;4.706;2022-10-15T21:44:38;15.50;99.90
25214;DHT22;13160;51.834;4.706;2022-10-15T21:47:12;15.60;99.90
25214;DHT22;13160;51.834;4.706;2022-10-15T21:49:46;15.60;99.90
25214;DHT22;13160;51.834;4.706;2022-10-15T21:52:19;15.60;99.90
25214;DHT22;13160;51.834;4.706;2022-10-15T21:54:49;15.60;99.90